sensor_id;sensor_type;location;lat;lon;timestamp;pressure;altitude;pressure_sealevel;temperature
14851;BMP180;7517;48.400;11.770;2023-02-28T00:01:28;96871.00;;;4.30
14851;BMP180;7517;48.400;11.770;2023-02-28T00:03:55;96865.00;;;4.20
14851;BMP180;7517;48.400;11.770;2023-02-28T00:06:23;96864.00;;;4.20
14851;BMP180;7517;48.400;11.770;2023-02-28T00:08:51;96859.00;;;4.20
14851;BMP180;7517;48.400;11.770;2023-02-28T00:11:20;96858.00;;;4.20
14851;BMP180;7517;48.400;11.770;2023-02-28T00:13:48;96860.00;;;4.20
14851;BMP180;7517;48.400;11.770;2023-02-28T00:16:18;96853.00;;;4.20
14851;BMP180;7517;48.400;11.770;2023-02-28T00:18:46;96849.00;;;4.10
14851;BMP180;7517;48.400;11.770;2023-02-28T00:21:15;96857.00;;;4.10
14851;BMP180;7517;48.400;11.770;2023-02-28T00:23:43;96850.00;;;4.10
14851;BMP180;7517;48.400;11.770;2023-02-28T00:26:11;96849.00;;;4.10
14851;BMP180;7517;48.400;11.770;2023-02-28T00:28:40;96848.00;;;4.00
14851;BMP180;7517;48.400;11.770;2023-02-28T00:31:07;96843.00;;;4.00
14851;BMP180;7517;48.400;11.770;2023-02-28T00:33:35;96842.00;;;4.00
14851;BMP180;7517;48.400;11.770;2023-02-28T00:36:08;96830.00;;;3.90
14851;BMP180;7517;48.400;11.770;2023-02-28T00:38:36;96834.00;;;3.90
14851;BMP180;7517;48.400;11.770;2023-02-28T00:41:04;96842.00;;;3.90
14851;BMP180;7517;48.400;11.770;2023-02-28T00:43:34;96837.00;;;3.90
14851;BMP180;7517;48.400;11.770;2023-02-28T00:46:04;96845.00;;;3.80
14851;BMP180;7517;48.400;11.770;2023-02-28T00:48:33;96842.00;;;3.80
14851;BMP180;7517;48.400;11.770;2023-02-28T00:51:04;96840.00;;;3.80
14851;BMP180;7517;48.400;11.770;2023-02-28T00:53:32;96836.00;;;3.80
14851;BMP180;7517;48.400;11.770;2023-02-28T00:56:00;96830.00;;;3.80
14851;BMP180;7517;48.400;11.770;2023-02-28T00:58:27;96831.00;;;3.70
14851;BMP180;7517;48.400;11.770;2023-02-28T01:00:55;96831.00;;;3.70
14851;BMP180;7517;48.400;11.770;2023-02-28T01:03:26;96829.00;;;3.70
14851;BMP180;7517;48.400;11.770;2023-02-28T01:05:53;96821.00;;;3.70
14851;BMP180;7517;48.400;11.770;2023-02-28T01:08:21;96822.00;;;3.70
14851;BMP180;7517;48.400;11.770;2023-02-28T01:10:49;96824.00;;;3.70
14851;BMP180;7517;48.400;11.770;2023-02-28T01:13:16;96825.00;;;3.60
14851;BMP180;7517;48.400;11.770;2023-02-28T01:15:49;96821.00;;;3.60
14851;BMP180;7517;48.400;11.770;2023-02-28T01:18:17;96816.00;;;3.60
14851;BMP180;7517;48.400;11.770;2023-02-28T01:20:46;96826.00;;;3.60
14851;BMP180;7517;48.400;11.770;2023-02-28T01:23:15;96815.00;;;3.60
14851;BMP180;7517;48.400;11.770;2023-02-28T01:25:42;96805.00;;;3.60
14851;BMP180;7517;48.400;11.770;2023-02-28T01:28:10;96818.00;;;3.60
14851;BMP180;7517;48.400;11.770;2023-02-28T01:30:37;96815.00;;;3.60
14851;BMP180;7517;48.400;11.770;2023-02-28T01:33:04;96820.00;;;3.60
14851;BMP180;7517;48.400;11.770;2023-02-28T01:35:33;96816.00;;;3.60
14851;BMP180;7517;48.400;11.770;2023-02-28T01:38:02;96808.00;;;3.60
14851;BMP180;7517;48.400;11.770;2023-02-28T01:40:30;96822.00;;;3.60
14851;BMP180;7517;48.400;11.770;2023-02-28T01:42:57;96815.00;;;3.60
14851;BMP180;7517;48.400;11.770;2023-02-28T01:45:28;96808.00;;;3.60
14851;BMP180;7517;48.400;11.770;2023-02-28T01:48:02;96800.00;;;3.60
14851;BMP180;7517;48.400;11.770;2023-02-28T01:50:38;96801.00;;;3.60
14851;BMP180;7517;48.400;11.770;2023-02-28T01:53:13;96803.00;;;3.60
14851;BMP180;7517;48.400;11.770;2023-02-28T01:55:48;96810.00;;;3.60
14851;BMP180;7517;48.400;11.770;2023-02-28T01:58:16;96800.00;;;3.50
14851;BMP180;7517;48.400;11.770;2023-02-28T02:00:44;96797.00;;;3.50
14851;BMP180;7517;48.400;11.770;2023-02-28T02:03:15;96796.00;;;3.50
14851;BMP180;7517;48.400;11.770;2023-02-28T02:05:45;96799.00;;;3.50
14851;BMP180;7517;48.400;11.770;2023-02-28T02:08:20;96799.00;;;3.50
14851;BMP180;7517;48.400;11.770;2023-02-28T02:10:51;96786.00;;;3.50
14851;BMP180;7517;48.400;11.770;2023-02-28T02:13:42;96790.00;;;3.40
14851;BMP180;7517;48.400;11.770;2023-02-28T02:16:35;96788.00;;;3.40
14851;BMP180;7517;48.400;11.770;2023-02-28T02:19:33;96803.00;;;3.40
14851;BMP180;7517;48.400;11.770;2023-02-28T02:22:43;96794.00;;;3.30
14851;BMP180;7517;48.400;11.770;2023-02-28T02:25:25;96798.00;;;3.30
14851;BMP180;7517;48.400;11.770;2023-02-28T02:31:32;96792.00;;;3.30
14851;BMP180;7517;48.400;11.770;2023-02-28T02:34:39;96794.00;;;3.30
14851;BMP180;7517;48.400;11.770;2023-02-28T02:37:21;96791.00;;;3.30
14851;BMP180;7517;48.400;11.770;2023-02-28T02:39:58;96794.00;;;3.20
14851;BMP180;7517;48.400;11.770;2023-02-28T02:42:36;96788.00;;;3.20
14851;BMP180;7517;48.400;11.770;2023-02-28T02:45:11;96792.00;;;3.20
14851;BMP180;7517;48.400;11.770;2023-02-28T02:47:42;96796.00;;;3.20
14851;BMP180;7517;48.400;11.770;2023-02-28T02:50:19;96785.00;;;3.10
14851;BMP180;7517;48.400;11.770;2023-02-28T02:52:54;96804.00;;;3.10
14851;BMP180;7517;48.400;11.770;2023-02-28T02:55:23;96789.00;;;3.10
14851;BMP180;7517;48.400;11.770;2023-02-28T02:57:55;96796.00;;;3.10
14851;BMP180;7517;48.400;11.770;2023-02-28T03:00:32;96791.00;;;3.00
14851;BMP180;7517;48.400;11.770;2023-02-28T03:03:02;96797.00;;;3.00
14851;BMP180;7517;48.400;11.770;2023-02-28T03:05:39;96792.00;;;3.00
14851;BMP180;7517;48.400;11.770;2023-02-28T03:08:09;96793.00;;;3.00
14851;BMP180;7517;48.400;11.770;2023-02-28T03:10:40;96792.00;;;3.00
14851;BMP180;7517;48.400;11.770;2023-02-28T03:14:09;96790.00;;;3.00
14851;BMP180;7517;48.400;11.770;2023-02-28T03:16:59;96795.00;;;3.00
14851;BMP180;7517;48.400;11.770;2023-02-28T03:19:45;96786.00;;;3.00
14851;BMP180;7517;48.400;11.770;2023-02-28T03:22:43;96786.00;;;3.00
14851;BMP180;7517;48.400;11.770;2023-02-28T03:25:21;96785.00;;;3.10
14851;BMP180;7517;48.400;11.770;2023-02-28T03:28:09;96796.00;;;3.10
14851;BMP180;7517;48.400;11.770;2023-02-28T03:30:48;96799.00;;;3.20
14851;BMP180;7517;48.400;11.770;2023-02-28T03:33:21;96794.00;;;3.20
14851;BMP180;7517;48.400;11.770;2023-02-28T03:35:55;96793.00;;;3.20
14851;BMP180;7517;48.400;11.770;2023-02-28T03:38:33;96791.00;;;3.30
14851;BMP180;7517;48.400;11.770;2023-02-28T03:41:09;96793.00;;;3.30
14851;BMP180;7517;48.400;11.770;2023-02-28T03:43:43;96800.00;;;3.30
14851;BMP180;7517;48.400;11.770;2023-02-28T03:46:16;96792.00;;;3.40
14851;BMP180;7517;48.400;11.770;2023-02-28T03:48:55;96794.00;;;3.40
14851;BMP180;7517;48.400;11.770;2023-02-28T03:51:26;96795.00;;;3.40
14851;BMP180;7517;48.400;11.770;2023-02-28T03:53:59;96785.00;;;3.40
14851;BMP180;7517;48.400;11.770;2023-02-28T03:56:34;96792.00;;;3.40
14851;BMP180;7517;48.400;11.770;2023-02-28T03:59:12;96797.00;;;3.40
14851;BMP180;7517;48.400;11.770;2023-02-28T04:01:43;96804.00;;;3.50
14851;BMP180;7517;48.400;11.770;2023-02-28T04:04:12;96798.00;;;3.50
14851;BMP180;7517;48.400;11.770;2023-02-28T04:06:42;96799.00;;;3.50
14851;BMP180;7517;48.400;11.770;2023-02-28T04:09:14;96806.00;;;3.50
14851;BMP180;7517;48.400;11.770;2023-02-28T04:11:44;96813.00;;;3.50
14851;BMP180;7517;48.400;11.770;2023-02-28T04:14:12;96809.00;;;3.50
14851;BMP180;7517;48.400;11.770;2023-02-28T04:16:41;96813.00;;;3.50
14851;BMP180;7517;48.400;11.770;2023-02-28T04:19:11;96817.00;;;3.50
14851;BMP180;7517;48.400;11.770;2023-02-28T04:21:42;96821.00;;;3.60
14851;BMP180;7517;48.400;11.770;2023-02-28T04:24:13;96821.00;;;3.60
14851;BMP180;7517;48.400;11.770;2023-02-28T04:26:44;96813.00;;;3.50
14851;BMP180;7517;48.400;11.770;2023-02-28T04:29:18;96813.00;;;3.50
14851;BMP180;7517;48.400;11.770;2023-02-28T04:31:47;96820.00;;;3.50
14851;BMP180;7517;48.400;11.770;2023-02-28T04:34:15;96821.00;;;3.60
14851;BMP180;7517;48.400;11.770;2023-02-28T04:36:42;96825.00;;;3.60
14851;BMP180;7517;48.400;11.770;2023-02-28T04:39:13;96825.00;;;3.50
14851;BMP180;7517;48.400;11.770;2023-02-28T04:41:40;96820.00;;;3.50
14851;BMP180;7517;48.400;11.770;2023-02-28T04:44:07;96828.00;;;3.60
14851;BMP180;7517;48.400;11.770;2023-02-28T04:46:35;96820.00;;;3.60
14851;BMP180;7517;48.400;11.770;2023-02-28T04:49:02;96831.00;;;3.60
14851;BMP180;7517;48.400;11.770;2023-02-28T04:51:30;96837.00;;;3.50
14851;BMP180;7517;48.400;11.770;2023-02-28T04:53:59;96831.00;;;3.50
14851;BMP180;7517;48.400;11.770;2023-02-28T04:56:28;96831.00;;;3.50
14851;BMP180;7517;48.400;11.770;2023-02-28T04:58:55;96827.00;;;3.50
14851;BMP180;7517;48.400;11.770;2023-02-28T05:01:25;96832.00;;;3.50
14851;BMP180;7517;48.400;11.770;2023-02-28T05:03:55;96833.00;;;3.50
14851;BMP180;7517;48.400;11.770;2023-02-28T05:06:26;96830.00;;;3.50
14851;BMP180;7517;48.400;11.770;2023-02-28T05:08:54;96842.00;;;3.50
14851;BMP180;7517;48.400;11.770;2023-02-28T05:11:27;96837.00;;;3.40
14851;BMP180;7517;48.400;11.770;2023-02-28T05:14:00;96838.00;;;3.40
14851;BMP180;7517;48.400;11.770;2023-02-28T05:16:28;96849.00;;;3.40
14851;BMP180;7517;48.400;11.770;2023-02-28T05:18:55;96839.00;;;3.40
14851;BMP180;7517;48.400;11.770;2023-02-28T05:21:28;96837.00;;;3.40
14851;BMP180;7517;48.400;11.770;2023-02-28T05:23:59;96839.00;;;3.40
14851;BMP180;7517;48.400;11.770;2023-02-28T05:26:28;96844.00;;;3.30
14851;BMP180;7517;48.400;11.770;2023-02-28T05:28:56;96845.00;;;3.30
14851;BMP180;7517;48.400;11.770;2023-02-28T05:31:23;96838.00;;;3.30
14851;BMP180;7517;48.400;11.770;2023-02-28T05:33:51;96843.00;;;3.30
14851;BMP180;7517;48.400;11.770;2023-02-28T05:36:19;96854.00;;;3.30
14851;BMP180;7517;48.400;11.770;2023-02-28T05:38:49;96845.00;;;3.30
14851;BMP180;7517;48.400;11.770;2023-02-28T05:41:18;96847.00;;;3.30
14851;BMP180;7517;48.400;11.770;2023-02-28T05:43:48;96848.00;;;3.30
14851;BMP180;7517;48.400;11.770;2023-02-28T05:46:16;96850.00;;;3.30
14851;BMP180;7517;48.400;11.770;2023-02-28T05:48:47;96850.00;;;3.30
14851;BMP180;7517;48.400;11.770;2023-02-28T05:51:15;96854.00;;;3.30
14851;BMP180;7517;48.400;11.770;2023-02-28T05:53:43;96860.00;;;3.20
14851;BMP180;7517;48.400;11.770;2023-02-28T05:56:11;96864.00;;;3.20
14851;BMP180;7517;48.400;11.770;2023-02-28T05:58:39;96858.00;;;3.20
14851;BMP180;7517;48.400;11.770;2023-02-28T06:01:34;96854.00;;;3.20
14851;BMP180;7517;48.400;11.770;2023-02-28T06:04:03;96863.00;;;3.20
14851;BMP180;7517;48.400;11.770;2023-02-28T06:06:31;96863.00;;;3.20
14851;BMP180;7517;48.400;11.770;2023-02-28T06:09:03;96859.00;;;3.20
14851;BMP180;7517;48.400;11.770;2023-02-28T06:11:31;96855.00;;;3.20
14851;BMP180;7517;48.400;11.770;2023-02-28T06:14:00;96863.00;;;3.20
14851;BMP180;7517;48.400;11.770;2023-02-28T06:16:31;96859.00;;;3.20
14851;BMP180;7517;48.400;11.770;2023-02-28T06:19:02;96866.00;;;3.20
14851;BMP180;7517;48.400;11.770;2023-02-28T06:21:30;96859.00;;;3.20
14851;BMP180;7517;48.400;11.770;2023-02-28T06:23:58;96862.00;;;3.20
14851;BMP180;7517;48.400;11.770;2023-02-28T06:26:26;96872.00;;;3.20
14851;BMP180;7517;48.400;11.770;2023-02-28T06:28:54;96866.00;;;3.30
14851;BMP180;7517;48.400;11.770;2023-02-28T06:31:21;96873.00;;;3.30
14851;BMP180;7517;48.400;11.770;2023-02-28T06:33:52;96878.00;;;3.30
14851;BMP180;7517;48.400;11.770;2023-02-28T06:36:19;96886.00;;;3.40
14851;BMP180;7517;48.400;11.770;2023-02-28T06:38:46;96882.00;;;3.40
14851;BMP180;7517;48.400;11.770;2023-02-28T06:41:17;96877.00;;;3.40
14851;BMP180;7517;48.400;11.770;2023-02-28T06:43:44;96884.00;;;3.40
14851;BMP180;7517;48.400;11.770;2023-02-28T06:46:14;96884.00;;;3.40
14851;BMP180;7517;48.400;11.770;2023-02-28T06:48:43;96890.00;;;3.40
14851;BMP180;7517;48.400;11.770;2023-02-28T06:51:16;96888.00;;;3.40
14851;BMP180;7517;48.400;11.770;2023-02-28T06:53:43;96891.00;;;3.40
14851;BMP180;7517;48.400;11.770;2023-02-28T06:56:13;96901.00;;;3.40
14851;BMP180;7517;48.400;11.770;2023-02-28T06:58:41;96896.00;;;3.50
14851;BMP180;7517;48.400;11.770;2023-02-28T07:01:09;96898.00;;;3.40
14851;BMP180;7517;48.400;11.770;2023-02-28T07:03:37;96903.00;;;3.50
14851;BMP180;7517;48.400;11.770;2023-02-28T07:06:05;96898.00;;;3.50
14851;BMP180;7517;48.400;11.770;2023-02-28T07:08:35;96894.00;;;3.50
14851;BMP180;7517;48.400;11.770;2023-02-28T07:11:04;96899.00;;;3.50
14851;BMP180;7517;48.400;11.770;2023-02-28T07:13:33;96897.00;;;3.50
14851;BMP180;7517;48.400;11.770;2023-02-28T07:16:05;96901.00;;;3.50
14851;BMP180;7517;48.400;11.770;2023-02-28T07:18:35;96902.00;;;3.50
14851;BMP180;7517;48.400;11.770;2023-02-28T07:21:04;96906.00;;;3.50
14851;BMP180;7517;48.400;11.770;2023-02-28T07:23:35;96908.00;;;3.60
14851;BMP180;7517;48.400;11.770;2023-02-28T07:26:04;96899.00;;;3.60
14851;BMP180;7517;48.400;11.770;2023-02-28T07:28:31;96904.00;;;3.60
14851;BMP180;7517;48.400;11.770;2023-02-28T07:31:04;96903.00;;;3.60
14851;BMP180;7517;48.400;11.770;2023-02-28T07:33:32;96902.00;;;3.70
14851;BMP180;7517;48.400;11.770;2023-02-28T07:36:05;96912.00;;;3.70
14851;BMP180;7517;48.400;11.770;2023-02-28T07:38:35;96904.00;;;3.70
14851;BMP180;7517;48.400;11.770;2023-02-28T07:41:03;96913.00;;;3.80
14851;BMP180;7517;48.400;11.770;2023-02-28T07:43:32;96906.00;;;3.80
14851;BMP180;7517;48.400;11.770;2023-02-28T07:46:03;96915.00;;;3.90
14851;BMP180;7517;48.400;11.770;2023-02-28T07:48:31;96909.00;;;3.90
14851;BMP180;7517;48.400;11.770;2023-02-28T07:51:00;96920.00;;;3.90
14851;BMP180;7517;48.400;11.770;2023-02-28T07:53:29;96920.00;;;4.00
14851;BMP180;7517;48.400;11.770;2023-02-28T07:56:00;96929.00;;;4.00
14851;BMP180;7517;48.400;11.770;2023-02-28T07:58:29;96923.00;;;4.10
14851;BMP180;7517;48.400;11.770;2023-02-28T08:00:57;96928.00;;;4.10
14851;BMP180;7517;48.400;11.770;2023-02-28T08:03:31;96920.00;;;4.20
14851;BMP180;7517;48.400;11.770;2023-02-28T08:05:59;96920.00;;;4.30
14851;BMP180;7517;48.400;11.770;2023-02-28T08:08:27;96927.00;;;4.40
14851;BMP180;7517;48.400;11.770;2023-02-28T08:11:00;96925.00;;;4.50
14851;BMP180;7517;48.400;11.770;2023-02-28T08:13:29;96916.00;;;4.60
14851;BMP180;7517;48.400;11.770;2023-02-28T08:15:57;96924.00;;;4.70
14851;BMP180;7517;48.400;11.770;2023-02-28T08:18:25;96917.00;;;4.80
14851;BMP180;7517;48.400;11.770;2023-02-28T08:20:52;96925.00;;;4.90
14851;BMP180;7517;48.400;11.770;2023-02-28T08:23:20;96931.00;;;5.10
14851;BMP180;7517;48.400;11.770;2023-02-28T08:25:54;96939.00;;;5.20
14851;BMP180;7517;48.400;11.770;2023-02-28T08:28:23;96941.00;;;5.30
14851;BMP180;7517;48.400;11.770;2023-02-28T08:30:50;96932.00;;;5.40
14851;BMP180;7517;48.400;11.770;2023-02-28T08:33:18;96940.00;;;5.60
14851;BMP180;7517;48.400;11.770;2023-02-28T08:35:45;96942.00;;;5.70
14851;BMP180;7517;48.400;11.770;2023-02-28T08:38:12;96939.00;;;5.80
14851;BMP180;7517;48.400;11.770;2023-02-28T08:40:41;96946.00;;;6.00
14851;BMP180;7517;48.400;11.770;2023-02-28T08:43:08;96957.00;;;6.10
14851;BMP180;7517;48.400;11.770;2023-02-28T08:45:37;96950.00;;;6.20
14851;BMP180;7517;48.400;11.770;2023-02-28T08:48:05;96944.00;;;6.40
14851;BMP180;7517;48.400;11.770;2023-02-28T08:50:33;96951.00;;;6.50
14851;BMP180;7517;48.400;11.770;2023-02-28T08:53:01;96949.00;;;6.70
14851;BMP180;7517;48.400;11.770;2023-02-28T08:55:28;96956.00;;;6.80
14851;BMP180;7517;48.400;11.770;2023-02-28T08:57:56;96958.00;;;6.90
14851;BMP180;7517;48.400;11.770;2023-02-28T09:00:24;96963.00;;;7.10
14851;BMP180;7517;48.400;11.770;2023-02-28T09:02:53;96963.00;;;7.20
14851;BMP180;7517;48.400;11.770;2023-02-28T09:05:20;96962.00;;;7.40
14851;BMP180;7517;48.400;11.770;2023-02-28T09:07:49;96963.00;;;7.60
14851;BMP180;7517;48.400;11.770;2023-02-28T09:10:17;96961.00;;;7.70
14851;BMP180;7517;48.400;11.770;2023-02-28T09:12:44;96963.00;;;7.80
14851;BMP180;7517;48.400;11.770;2023-02-28T09:15:13;96964.00;;;8.00
14851;BMP180;7517;48.400;11.770;2023-02-28T09:17:40;96975.00;;;8.10
14851;BMP180;7517;48.400;11.770;2023-02-28T09:20:12;96974.00;;;8.30
14851;BMP180;7517;48.400;11.770;2023-02-28T09:22:39;96984.00;;;8.40
14851;BMP180;7517;48.400;11.770;2023-02-28T09:25:07;96981.00;;;8.60
14851;BMP180;7517;48.400;11.770;2023-02-28T09:27:35;96981.00;;;8.70
14851;BMP180;7517;48.400;11.770;2023-02-28T09:30:03;96991.00;;;8.80
14851;BMP180;7517;48.400;11.770;2023-02-28T09:32:32;96990.00;;;8.90
14851;BMP180;7517;48.400;11.770;2023-02-28T09:34:59;96986.00;;;8.90
14851;BMP180;7517;48.400;11.770;2023-02-28T09:37:28;96996.00;;;9.00
14851;BMP180;7517;48.400;11.770;2023-02-28T09:39:58;97007.00;;;9.00
14851;BMP180;7517;48.400;11.770;2023-02-28T09:42:31;97002.00;;;9.10
14851;BMP180;7517;48.400;11.770;2023-02-28T09:45:06;97006.00;;;9.30
14851;BMP180;7517;48.400;11.770;2023-02-28T09:47:42;97012.00;;;9.30
14851;BMP180;7517;48.400;11.770;2023-02-28T09:50:27;97000.00;;;9.40
14851;BMP180;7517;48.400;11.770;2023-02-28T09:52:58;97008.00;;;9.50
14851;BMP180;7517;48.400;11.770;2023-02-28T09:55:33;97017.00;;;9.60
14851;BMP180;7517;48.400;11.770;2023-02-28T09:58:01;97019.00;;;9.70
14851;BMP180;7517;48.400;11.770;2023-02-28T10:00:33;97021.00;;;9.80
14851;BMP180;7517;48.400;11.770;2023-02-28T10:03:27;97015.00;;;9.90
14851;BMP180;7517;48.400;11.770;2023-02-28T10:06:03;97023.00;;;10.20
14851;BMP180;7517;48.400;11.770;2023-02-28T10:08:39;97018.00;;;10.40
14851;BMP180;7517;48.400;11.770;2023-02-28T10:11:16;97019.00;;;10.60
14851;BMP180;7517;48.400;11.770;2023-02-28T10:13:52;97028.00;;;10.80
14851;BMP180;7517;48.400;11.770;2023-02-28T10:16:29;97038.00;;;11.00
14851;BMP180;7517;48.400;11.770;2023-02-28T10:19:05;97029.00;;;11.10
14851;BMP180;7517;48.400;11.770;2023-02-28T10:21:39;97036.00;;;11.30
14851;BMP180;7517;48.400;11.770;2023-02-28T10:24:23;97042.00;;;11.50
14851;BMP180;7517;48.400;11.770;2023-02-28T10:27:00;97037.00;;;11.60
14851;BMP180;7517;48.400;11.770;2023-02-28T10:29:31;97041.00;;;11.70
14851;BMP180;7517;48.400;11.770;2023-02-28T10:32:02;97044.00;;;11.60
14851;BMP180;7517;48.400;11.770;2023-02-28T10:34:31;97046.00;;;11.50
14851;BMP180;7517;48.400;11.770;2023-02-28T10:36:59;97042.00;;;11.50
14851;BMP180;7517;48.400;11.770;2023-02-28T10:39:41;97042.00;;;11.50
14851;BMP180;7517;48.400;11.770;2023-02-28T10:42:24;97041.00;;;11.60
14851;BMP180;7517;48.400;11.770;2023-02-28T10:45:12;97042.00;;;11.60
14851;BMP180;7517;48.400;11.770;2023-02-28T10:47:52;97050.00;;;11.60
14851;BMP180;7517;48.400;11.770;2023-02-28T10:50:36;97049.00;;;11.60
14851;BMP180;7517;48.400;11.770;2023-02-28T10:53:30;97050.00;;;11.60
14851;BMP180;7517;48.400;11.770;2023-02-28T10:56:03;97046.00;;;11.60
14851;BMP180;7517;48.400;11.770;2023-02-28T10:58:46;97037.00;;;11.50
14851;BMP180;7517;48.400;11.770;2023-02-28T11:01:17;97040.00;;;11.50
14851;BMP180;7517;48.400;11.770;2023-02-28T11:03:45;97050.00;;;11.40
14851;BMP180;7517;48.400;11.770;2023-02-28T11:06:17;97041.00;;;11.40
14851;BMP180;7517;48.400;11.770;2023-02-28T11:08:52;97048.00;;;11.30
14851;BMP180;7517;48.400;11.770;2023-02-28T11:11:29;97048.00;;;11.30
14851;BMP180;7517;48.400;11.770;2023-02-28T11:14:04;97043.00;;;11.20
14851;BMP180;7517;48.400;11.770;2023-02-28T11:16:37;97055.00;;;11.10
14851;BMP180;7517;48.400;11.770;2023-02-28T11:19:18;97042.00;;;11.00
14851;BMP180;7517;48.400;11.770;2023-02-28T11:21:54;97042.00;;;10.90
14851;BMP180;7517;48.400;11.770;2023-02-28T11:24:27;97039.00;;;10.80
14851;BMP180;7517;48.400;11.770;2023-02-28T11:26:57;97046.00;;;10.70
14851;BMP180;7517;48.400;11.770;2023-02-28T11:29:28;97044.00;;;10.60
14851;BMP180;7517;48.400;11.770;2023-02-28T11:32:18;97041.00;;;10.50
14851;BMP180;7517;48.400;11.770;2023-02-28T11:34:47;97041.00;;;10.40
14851;BMP180;7517;48.400;11.770;2023-02-28T11:37:28;97038.00;;;10.40
14851;BMP180;7517;48.400;11.770;2023-02-28T11:39:57;97032.00;;;10.30
14851;BMP180;7517;48.400;11.770;2023-02-28T11:42:43;97025.00;;;10.20
14851;BMP180;7517;48.400;11.770;2023-02-28T11:45:43;97032.00;;;10.20
14851;BMP180;7517;48.400;11.770;2023-02-28T11:48:19;97021.00;;;10.10
14851;BMP180;7517;48.400;11.770;2023-02-28T11:51:05;97034.00;;;10.10
14851;BMP180;7517;48.400;11.770;2023-02-28T11:54:12;97022.00;;;10.00
14851;BMP180;7517;48.400;11.770;2023-02-28T11:56:49;97014.00;;;10.10
14851;BMP180;7517;48.400;11.770;2023-02-28T11:59:55;97018.00;;;10.10
14851;BMP180;7517;48.400;11.770;2023-02-28T12:02:34;97002.00;;;10.10
14851;BMP180;7517;48.400;11.770;2023-02-28T12:05:24;97006.00;;;10.10
14851;BMP180;7517;48.400;11.770;2023-02-28T12:08:09;97005.00;;;10.10
14851;BMP180;7517;48.400;11.770;2023-02-28T12:10:56;97011.00;;;10.10
14851;BMP180;7517;48.400;11.770;2023-02-28T12:13:35;97014.00;;;10.10
14851;BMP180;7517;48.400;11.770;2023-02-28T12:19:32;97009.00;;;10.20
14851;BMP180;7517;48.400;11.770;2023-02-28T12:22:29;97002.00;;;10.20
14851;BMP180;7517;48.400;11.770;2023-02-28T12:25:38;96998.00;;;10.20
14851;BMP180;7517;48.400;11.770;2023-02-28T12:28:16;97003.00;;;10.20
14851;BMP180;7517;48.400;11.770;2023-02-28T12:30:53;97000.00;;;10.20
14851;BMP180;7517;48.400;11.770;2023-02-28T12:33:26;96991.00;;;10.20
14851;BMP180;7517;48.400;11.770;2023-02-28T12:35:59;96998.00;;;10.20
14851;BMP180;7517;48.400;11.770;2023-02-28T12:38:35;97001.00;;;10.30
14851;BMP180;7517;48.400;11.770;2023-02-28T12:41:05;97010.00;;;10.30
14851;BMP180;7517;48.400;11.770;2023-02-28T12:43:41;96999.00;;;10.30
14851;BMP180;7517;48.400;11.770;2023-02-28T12:46:15;96998.00;;;10.30
14851;BMP180;7517;48.400;11.770;2023-02-28T12:48:49;96990.00;;;10.40
14851;BMP180;7517;48.400;11.770;2023-02-28T12:51:21;96979.00;;;10.40
14851;BMP180;7517;48.400;11.770;2023-02-28T12:54:00;96987.00;;;10.40
14851;BMP180;7517;48.400;11.770;2023-02-28T12:56:41;96987.00;;;10.40
14851;BMP180;7517;48.400;11.770;2023-02-28T12:59:22;96982.00;;;10.40
14851;BMP180;7517;48.400;11.770;2023-02-28T13:05:37;96976.00;;;10.40
14851;BMP180;7517;48.400;11.770;2023-02-28T13:11:29;96976.00;;;10.50
14851;BMP180;7517;48.400;11.770;2023-02-28T13:14:01;96977.00;;;10.50
14851;BMP180;7517;48.400;11.770;2023-02-28T13:16:56;96980.00;;;10.50
14851;BMP180;7517;48.400;11.770;2023-02-28T13:19:27;96977.00;;;10.50
14851;BMP180;7517;48.400;11.770;2023-02-28T13:21:57;96970.00;;;10.50
14851;BMP180;7517;48.400;11.770;2023-02-28T13:24:56;96972.00;;;10.60
14851;BMP180;7517;48.400;11.770;2023-02-28T13:27:37;96976.00;;;10.60
14851;BMP180;7517;48.400;11.770;2023-02-28T13:33:31;96974.00;;;10.60
14851;BMP180;7517;48.400;11.770;2023-02-28T13:36:23;96974.00;;;10.60
14851;BMP180;7517;48.400;11.770;2023-02-28T13:38:53;96972.00;;;10.70
14851;BMP180;7517;48.400;11.770;2023-02-28T13:41:50;96977.00;;;10.70
14851;BMP180;7517;48.400;11.770;2023-02-28T13:44:19;96963.00;;;10.70
14851;BMP180;7517;48.400;11.770;2023-02-28T13:47:28;96973.00;;;10.70
14851;BMP180;7517;48.400;11.770;2023-02-28T13:50:28;96972.00;;;10.70
14851;BMP180;7517;48.400;11.770;2023-02-28T13:53:24;96978.00;;;10.70
14851;BMP180;7517;48.400;11.770;2023-02-28T13:56:04;96966.00;;;10.70
14851;BMP180;7517;48.400;11.770;2023-02-28T13:58:48;96967.00;;;10.70
14851;BMP180;7517;48.400;11.770;2023-02-28T14:01:35;96970.00;;;10.70
14851;BMP180;7517;48.400;11.770;2023-02-28T14:07:25;96969.00;;;10.70
14851;BMP180;7517;48.400;11.770;2023-02-28T14:10:00;96972.00;;;10.70
14851;BMP180;7517;48.400;11.770;2023-02-28T14:12:58;96974.00;;;10.70
14851;BMP180;7517;48.400;11.770;2023-02-28T14:15:54;96978.00;;;10.70
14851;BMP180;7517;48.400;11.770;2023-02-28T14:18:31;96980.00;;;10.70
14851;BMP180;7517;48.400;11.770;2023-02-28T14:21:12;96973.00;;;10.70
14851;BMP180;7517;48.400;11.770;2023-02-28T14:25:00;96976.00;;;10.70
14851;BMP180;7517;48.400;11.770;2023-02-28T14:27:40;96973.00;;;10.70
14851;BMP180;7517;48.400;11.770;2023-02-28T14:33:56;96972.00;;;10.60
14851;BMP180;7517;48.400;11.770;2023-02-28T14:36:32;96973.00;;;10.60
14851;BMP180;7517;48.400;11.770;2023-02-28T14:39:05;96970.00;;;10.60
14851;BMP180;7517;48.400;11.770;2023-02-28T14:41:35;96974.00;;;10.60
14851;BMP180;7517;48.400;11.770;2023-02-28T14:44:16;96974.00;;;10.60
14851;BMP180;7517;48.400;11.770;2023-02-28T14:46:46;96971.00;;;10.60
14851;BMP180;7517;48.400;11.770;2023-02-28T14:49:20;96971.00;;;10.50
14851;BMP180;7517;48.400;11.770;2023-02-28T14:51:50;96969.00;;;10.50
14851;BMP180;7517;48.400;11.770;2023-02-28T14:54:32;96972.00;;;10.50
14851;BMP180;7517;48.400;11.770;2023-02-28T14:57:00;96965.00;;;10.50
14851;BMP180;7517;48.400;11.770;2023-02-28T14:59:30;96964.00;;;10.50
14851;BMP180;7517;48.400;11.770;2023-02-28T15:02:22;96967.00;;;10.50
14851;BMP180;7517;48.400;11.770;2023-02-28T15:05:00;96965.00;;;10.40
14851;BMP180;7517;48.400;11.770;2023-02-28T15:07:28;96962.00;;;10.50
14851;BMP180;7517;48.400;11.770;2023-02-28T15:10:20;96969.00;;;10.50
14851;BMP180;7517;48.400;11.770;2023-02-28T15:12:53;96972.00;;;10.50
14851;BMP180;7517;48.400;11.770;2023-02-28T15:15:25;96970.00;;;10.50
14851;BMP180;7517;48.400;11.770;2023-02-28T15:17:59;96972.00;;;10.50
14851;BMP180;7517;48.400;11.770;2023-02-28T15:20:29;96971.00;;;10.50